Salt Lake City, Utah
Traffic Map
Current Weather Conditions
Salt Lake City, Utah
Scattered Clouds
Scattered Clouds
16°
Feels Like: 16°
Wind Chill: 16° Ceiling: Unl
Heat Index: 16° Visibility: 10mi
Dew Point: Wind: 12mph
Humidity: 60% Direction: 10° (N)
Pressure: 30.09in Gusts: 0mph
Raw Report DataKSLC 300654Z 01010KT 10SM FEW070 SCT100 16/08 A3009 RMK AO2 SLP141 T01610083 402670139
Traffic Incident Summary
Active as of:
Severity:
Category:
InformationThere was an issue retrieving the traffic information for this location. Please try a different location or try again shortly.
Advertisements
Track Severe Weather on mobile